sensor_id;sensor_type;location;lat;lon;timestamp;temperature;humidity
4820;DHT22;2424;49.696;6.630;2024-03-02T00:00:09;8.60;99.90
4820;DHT22;2424;49.696;6.630;2024-03-02T00:05:32;8.50;99.90
4820;DHT22;2424;49.696;6.630;2024-03-02T00:10:59;8.50;99.90
4820;DHT22;2424;49.696;6.630;2024-03-02T00:16:23;8.50;99.90
4820;DHT22;2424;49.696;6.630;2024-03-02T00:21:45;8.40;99.90
4820;DHT22;2424;49.696;6.630;2024-03-02T00:27:13;8.40;99.90
4820;DHT22;2424;49.696;6.630;2024-03-02T00:32:35;8.40;99.90
4820;DHT22;2424;49.696;6.630;2024-03-02T00:37:57;8.30;99.90
4820;DHT22;2424;49.696;6.630;2024-03-02T00:43:42;8.30;99.90
4820;DHT22;2424;49.696;6.630;2024-03-02T00:49:10;8.30;99.90
4820;DHT22;2424;49.696;6.630;2024-03-02T00:54:33;8.20;99.90
4820;DHT22;2424;49.696;6.630;2024-03-02T00:59:56;8.20;99.90
4820;DHT22;2424;49.696;6.630;2024-03-02T01:05:18;8.20;99.90
4820;DHT22;2424;49.696;6.630;2024-03-02T01:10:40;8.10;99.90
4820;DHT22;2424;49.696;6.630;2024-03-02T01:16:04;8.10;99.90
4820;DHT22;2424;49.696;6.630;2024-03-02T01:21:26;8.00;99.90
4820;DHT22;2424;49.696;6.630;2024-03-02T01:26:48;8.10;99.90
4820;DHT22;2424;49.696;6.630;2024-03-02T01:32:11;8.10;99.90
4820;DHT22;2424;49.696;6.630;2024-03-02T01:37:33;8.20;99.90
4820;DHT22;2424;49.696;6.630;2024-03-02T01:42:55;8.20;99.90
4820;DHT22;2424;49.696;6.630;2024-03-02T01:48:20;8.20;99.90
4820;DHT22;2424;49.696;6.630;2024-03-02T01:53:41;8.20;99.90
4820;DHT22;2424;49.696;6.630;2024-03-02T01:59:03;8.30;99.90
4820;DHT22;2424;49.696;6.630;2024-03-02T02:04:27;8.20;99.90
4820;DHT22;2424;49.696;6.630;2024-03-02T02:09:49;8.20;99.90
4820;DHT22;2424;49.696;6.630;2024-03-02T02:15:27;8.20;99.90
4820;DHT22;2424;49.696;6.630;2024-03-02T02:20:52;8.30;99.90
4820;DHT22;2424;49.696;6.630;2024-03-02T02:26:15;8.40;99.90
4820;DHT22;2424;49.696;6.630;2024-03-02T02:31:38;8.30;99.90
4820;DHT22;2424;49.696;6.630;2024-03-02T02:37:00;8.40;99.90
4820;DHT22;2424;49.696;6.630;2024-03-02T02:42:24;8.40;99.90
4820;DHT22;2424;49.696;6.630;2024-03-02T02:47:46;8.50;99.90
4820;DHT22;2424;49.696;6.630;2024-03-02T02:53:08;8.60;99.90
4820;DHT22;2424;49.696;6.630;2024-03-02T02:58:31;8.50;99.90
4820;DHT22;2424;49.696;6.630;2024-03-02T03:03:53;8.50;99.90
4820;DHT22;2424;49.696;6.630;2024-03-02T03:09:15;8.40;99.90
4820;DHT22;2424;49.696;6.630;2024-03-02T03:14:40;8.40;99.90
4820;DHT22;2424;49.696;6.630;2024-03-02T03:20:03;8.40;99.90
4820;DHT22;2424;49.696;6.630;2024-03-02T03:25:26;8.30;99.90
4820;DHT22;2424;49.696;6.630;2024-03-02T03:30:49;8.20;99.90
4820;DHT22;2424;49.696;6.630;2024-03-02T03:36:11;8.10;99.90
4820;DHT22;2424;49.696;6.630;2024-03-02T03:41:33;8.10;99.90
4820;DHT22;2424;49.696;6.630;2024-03-02T03:46:56;8.00;99.90
4820;DHT22;2424;49.696;6.630;2024-03-02T03:52:18;8.00;99.90
4820;DHT22;2424;49.696;6.630;2024-03-02T03:57:41;7.90;99.90
4820;DHT22;2424;49.696;6.630;2024-03-02T04:03:05;7.90;99.90
4820;DHT22;2424;49.696;6.630;2024-03-02T04:08:27;7.80;99.90
4820;DHT22;2424;49.696;6.630;2024-03-02T04:13:49;7.80;99.90
4820;DHT22;2424;49.696;6.630;2024-03-02T04:19:12;7.70;99.90
4820;DHT22;2424;49.696;6.630;2024-03-02T04:24:34;7.60;99.90
4820;DHT22;2424;49.696;6.630;2024-03-02T04:29:56;7.60;99.90
4820;DHT22;2424;49.696;6.630;2024-03-02T04:35:19;7.60;99.90
4820;DHT22;2424;49.696;6.630;2024-03-02T04:40:41;7.50;99.90
4820;DHT22;2424;49.696;6.630;2024-03-02T04:46:04;7.40;99.90
4820;DHT22;2424;49.696;6.630;2024-03-02T04:51:28;7.40;99.90
4820;DHT22;2424;49.696;6.630;2024-03-02T04:56:50;7.40;99.90
4820;DHT22;2424;49.696;6.630;2024-03-02T05:02:11;7.40;99.90
4820;DHT22;2424;49.696;6.630;2024-03-02T05:07:35;7.40;99.90
4820;DHT22;2424;49.696;6.630;2024-03-02T05:12:57;7.40;99.90
4820;DHT22;2424;49.696;6.630;2024-03-02T05:18:19;7.40;99.90
4820;DHT22;2424;49.696;6.630;2024-03-02T05:23:43;7.30;99.90
4820;DHT22;2424;49.696;6.630;2024-03-02T05:29:05;7.30;99.90
4820;DHT22;2424;49.696;6.630;2024-03-02T05:34:27;7.30;99.90
4820;DHT22;2424;49.696;6.630;2024-03-02T05:39:51;7.30;99.90
4820;DHT22;2424;49.696;6.630;2024-03-02T05:45:14;7.30;99.90
4820;DHT22;2424;49.696;6.630;2024-03-02T05:50:37;7.20;99.90
4820;DHT22;2424;49.696;6.630;2024-03-02T05:56:00;7.20;99.90
4820;DHT22;2424;49.696;6.630;2024-03-02T06:01:22;7.20;99.90
4820;DHT22;2424;49.696;6.630;2024-03-02T06:06:48;7.20;99.90
4820;DHT22;2424;49.696;6.630;2024-03-02T06:12:12;7.20;99.90
4820;DHT22;2424;49.696;6.630;2024-03-02T06:17:35;7.20;99.90
4820;DHT22;2424;49.696;6.630;2024-03-02T06:22:57;7.10;99.90
4820;DHT22;2424;49.696;6.630;2024-03-02T06:28:21;7.20;99.90
4820;DHT22;2424;49.696;6.630;2024-03-02T06:33:43;7.20;99.90
4820;DHT22;2424;49.696;6.630;2024-03-02T06:39:04;7.20;99.90
4820;DHT22;2424;49.696;6.630;2024-03-02T06:44:28;7.20;99.90
4820;DHT22;2424;49.696;6.630;2024-03-02T06:49:50;7.20;99.90
4820;DHT22;2424;49.696;6.630;2024-03-02T06:55:12;7.20;99.90
4820;DHT22;2424;49.696;6.630;2024-03-02T07:00:35;7.20;99.90
4820;DHT22;2424;49.696;6.630;2024-03-02T07:05:57;7.30;99.90
4820;DHT22;2424;49.696;6.630;2024-03-02T07:11:19;7.30;99.90
4820;DHT22;2424;49.696;6.630;2024-03-02T07:16:42;7.40;99.90
4820;DHT22;2424;49.696;6.630;2024-03-02T07:22:06;7.40;99.90
4820;DHT22;2424;49.696;6.630;2024-03-02T07:27:29;7.40;99.90
4820;DHT22;2424;49.696;6.630;2024-03-02T07:32:53;7.40;99.90
4820;DHT22;2424;49.696;6.630;2024-03-02T07:38:15;7.40;99.90
4820;DHT22;2424;49.696;6.630;2024-03-02T07:43:37;7.50;99.90
4820;DHT22;2424;49.696;6.630;2024-03-02T07:49:01;7.50;99.90
4820;DHT22;2424;49.696;6.630;2024-03-02T07:54:23;7.60;99.90
4820;DHT22;2424;49.696;6.630;2024-03-02T07:59:45;7.60;99.90
4820;DHT22;2424;49.696;6.630;2024-03-02T08:05:09;7.70;99.90
4820;DHT22;2424;49.696;6.630;2024-03-02T08:10:31;7.70;99.90
4820;DHT22;2424;49.696;6.630;2024-03-02T08:15:54;7.90;99.90
4820;DHT22;2424;49.696;6.630;2024-03-02T08:21:17;8.10;99.90
4820;DHT22;2424;49.696;6.630;2024-03-02T08:26:39;8.10;99.90
4820;DHT22;2424;49.696;6.630;2024-03-02T08:32:01;8.20;99.90
4820;DHT22;2424;49.696;6.630;2024-03-02T08:37:25;8.20;99.90
4820;DHT22;2424;49.696;6.630;2024-03-02T08:42:47;8.20;99.90
4820;DHT22;2424;49.696;6.630;2024-03-02T08:48:09;8.40;99.90
4820;DHT22;2424;49.696;6.630;2024-03-02T08:53:32;8.40;99.90
4820;DHT22;2424;49.696;6.630;2024-03-02T08:58:54;8.50;99.90
4820;DHT22;2424;49.696;6.630;2024-03-02T09:04:16;8.60;99.90
4820;DHT22;2424;49.696;6.630;2024-03-02T09:09:39;8.60;99.90
4820;DHT22;2424;49.696;6.630;2024-03-02T09:15:02;8.70;99.90
4820;DHT22;2424;49.696;6.630;2024-03-02T09:20:24;8.70;99.90
4820;DHT22;2424;49.696;6.630;2024-03-02T09:25:48;8.60;99.90
4820;DHT22;2424;49.696;6.630;2024-03-02T09:31:10;8.70;99.90
4820;DHT22;2424;49.696;6.630;2024-03-02T09:36:32;8.70;99.90
4820;DHT22;2424;49.696;6.630;2024-03-02T09:41:56;8.80;99.90
4820;DHT22;2424;49.696;6.630;2024-03-02T09:47:18;8.90;99.90
4820;DHT22;2424;49.696;6.630;2024-03-02T09:52:40;9.00;99.90
4820;DHT22;2424;49.696;6.630;2024-03-02T09:58:05;9.10;99.90
4820;DHT22;2424;49.696;6.630;2024-03-02T10:03:29;9.30;99.90
4820;DHT22;2424;49.696;6.630;2024-03-02T10:08:53;9.40;99.90
4820;DHT22;2424;49.696;6.630;2024-03-02T10:14:16;9.50;99.90
4820;DHT22;2424;49.696;6.630;2024-03-02T10:19:39;9.60;99.90
4820;DHT22;2424;49.696;6.630;2024-03-02T10:25:01;9.60;99.90
4820;DHT22;2424;49.696;6.630;2024-03-02T10:30:25;9.70;99.90
4820;DHT22;2424;49.696;6.630;2024-03-02T10:35:48;9.90;99.90
4820;DHT22;2424;49.696;6.630;2024-03-02T10:41:10;10.10;99.90
4820;DHT22;2424;49.696;6.630;2024-03-02T10:46:35;10.20;99.90
4820;DHT22;2424;49.696;6.630;2024-03-02T10:51:57;10.30;99.90
4820;DHT22;2424;49.696;6.630;2024-03-02T10:57:21;10.40;99.90
4820;DHT22;2424;49.696;6.630;2024-03-02T11:02:50;10.50;99.90
4820;DHT22;2424;49.696;6.630;2024-03-02T11:08:13;10.50;99.90
4820;DHT22;2424;49.696;6.630;2024-03-02T11:13:36;10.50;99.90
4820;DHT22;2424;49.696;6.630;2024-03-02T11:19:03;10.60;99.90
4820;DHT22;2424;49.696;6.630;2024-03-02T11:24:32;10.80;99.90
4820;DHT22;2424;49.696;6.630;2024-03-02T11:29:54;11.00;99.90
4820;DHT22;2424;49.696;6.630;2024-03-02T11:35:18;11.10;99.90
4820;DHT22;2424;49.696;6.630;2024-03-02T11:40:40;11.40;99.90
4820;DHT22;2424;49.696;6.630;2024-03-02T11:46:04;11.60;99.90
4820;DHT22;2424;49.696;6.630;2024-03-02T11:51:29;11.80;99.90
4820;DHT22;2424;49.696;6.630;2024-03-02T11:56:53;12.20;99.90
4820;DHT22;2424;49.696;6.630;2024-03-02T12:02:16;12.20;99.90
4820;DHT22;2424;49.696;6.630;2024-03-02T12:07:40;12.20;99.90
4820;DHT22;2424;49.696;6.630;2024-03-02T12:13:03;12.30;99.90
4820;DHT22;2424;49.696;6.630;2024-03-02T12:18:25;12.70;99.90
4820;DHT22;2424;49.696;6.630;2024-03-02T12:23:48;13.00;99.90
4820;DHT22;2424;49.696;6.630;2024-03-02T12:29:10;13.00;99.90
4820;DHT22;2424;49.696;6.630;2024-03-02T12:34:33;13.20;99.90
4820;DHT22;2424;49.696;6.630;2024-03-02T12:39:56;13.30;99.90
4820;DHT22;2424;49.696;6.630;2024-03-02T12:45:18;13.40;99.90
4820;DHT22;2424;49.696;6.630;2024-03-02T12:50:44;13.70;99.90
4820;DHT22;2424;49.696;6.630;2024-03-02T12:56:08;13.80;99.90
4820;DHT22;2424;49.696;6.630;2024-03-02T13:01:30;14.00;99.90
4820;DHT22;2424;49.696;6.630;2024-03-02T13:06:53;13.80;99.90
4820;DHT22;2424;49.696;6.630;2024-03-02T13:12:19;13.70;99.90
4820;DHT22;2424;49.696;6.630;2024-03-02T13:17:41;13.60;99.90
4820;DHT22;2424;49.696;6.630;2024-03-02T13:23:03;13.50;99.90
4820;DHT22;2424;49.696;6.630;2024-03-02T13:28:26;13.60;99.90
4820;DHT22;2424;49.696;6.630;2024-03-02T13:33:48;13.60;99.90
4820;DHT22;2424;49.696;6.630;2024-03-02T13:39:10;13.60;99.90
4820;DHT22;2424;49.696;6.630;2024-03-02T13:44:37;13.70;99.90
4820;DHT22;2424;49.696;6.630;2024-03-02T13:49:59;13.60;99.90
4820;DHT22;2424;49.696;6.630;2024-03-02T13:55:22;13.40;99.90
4820;DHT22;2424;49.696;6.630;2024-03-02T14:00:46;13.30;99.90
4820;DHT22;2424;49.696;6.630;2024-03-02T14:06:08;13.20;99.90
4820;DHT22;2424;49.696;6.630;2024-03-02T14:11:29;13.10;99.90
4820;DHT22;2424;49.696;6.630;2024-03-02T14:16:53;13.10;99.90
4820;DHT22;2424;49.696;6.630;2024-03-02T14:22:16;13.40;99.90
4820;DHT22;2424;49.696;6.630;2024-03-02T14:27:38;14.00;99.90
4820;DHT22;2424;49.696;6.630;2024-03-02T14:33:02;14.20;99.90
4820;DHT22;2424;49.696;6.630;2024-03-02T14:38:24;13.90;99.90
4820;DHT22;2424;49.696;6.630;2024-03-02T14:43:46;13.60;99.90
4820;DHT22;2424;49.696;6.630;2024-03-02T14:49:09;13.50;99.90
4820;DHT22;2424;49.696;6.630;2024-03-02T14:54:32;13.50;99.90
4820;DHT22;2424;49.696;6.630;2024-03-02T14:59:55;13.60;99.90
4820;DHT22;2424;49.696;6.630;2024-03-02T15:05:19;13.90;99.90
4820;DHT22;2424;49.696;6.630;2024-03-02T15:10:41;13.80;99.90
4820;DHT22;2424;49.696;6.630;2024-03-02T15:16:03;13.60;99.90
4820;DHT22;2424;49.696;6.630;2024-03-02T15:21:27;13.30;99.90
4820;DHT22;2424;49.696;6.630;2024-03-02T15:26:49;13.40;99.90
4820;DHT22;2424;49.696;6.630;2024-03-02T15:32:11;13.50;99.90
4820;DHT22;2424;49.696;6.630;2024-03-02T15:37:34;13.10;99.90
4820;DHT22;2424;49.696;6.630;2024-03-02T15:42:56;13.00;99.90
4820;DHT22;2424;49.696;6.630;2024-03-02T15:48:18;12.80;99.90
4820;DHT22;2424;49.696;6.630;2024-03-02T15:53:42;12.70;99.90
4820;DHT22;2424;49.696;6.630;2024-03-02T15:59:04;12.60;99.90
4820;DHT22;2424;49.696;6.630;2024-03-02T16:04:26;12.60;99.90
4820;DHT22;2424;49.696;6.630;2024-03-02T16:09:49;12.50;99.90
4820;DHT22;2424;49.696;6.630;2024-03-02T16:15:11;12.40;99.90
4820;DHT22;2424;49.696;6.630;2024-03-02T16:20:34;12.30;99.90
4820;DHT22;2424;49.696;6.630;2024-03-02T16:25:57;12.30;99.90
4820;DHT22;2424;49.696;6.630;2024-03-02T16:31:19;12.20;99.90
4820;DHT22;2424;49.696;6.630;2024-03-02T16:36:41;12.10;99.90
4820;DHT22;2424;49.696;6.630;2024-03-02T16:42:04;12.00;99.90
4820;DHT22;2424;49.696;6.630;2024-03-02T16:47:26;11.80;99.90
4820;DHT22;2424;49.696;6.630;2024-03-02T16:52:48;11.70;99.90
4820;DHT22;2424;49.696;6.630;2024-03-02T16:58:11;11.60;99.90
4820;DHT22;2424;49.696;6.630;2024-03-02T17:03:35;11.50;99.90
4820;DHT22;2424;49.696;6.630;2024-03-02T17:08:56;11.40;99.90
4820;DHT22;2424;49.696;6.630;2024-03-02T17:14:20;11.30;99.90
4820;DHT22;2424;49.696;6.630;2024-03-02T17:19:42;11.20;99.90
4820;DHT22;2424;49.696;6.630;2024-03-02T17:25:04;11.20;99.90
4820;DHT22;2424;49.696;6.630;2024-03-02T17:30:28;11.20;99.90
4820;DHT22;2424;49.696;6.630;2024-03-02T17:35:50;11.10;99.90
4820;DHT22;2424;49.696;6.630;2024-03-02T17:41:12;11.00;99.90
4820;DHT22;2424;49.696;6.630;2024-03-02T17:46:35;11.00;99.90
4820;DHT22;2424;49.696;6.630;2024-03-02T17:51:57;10.90;99.90
4820;DHT22;2424;49.696;6.630;2024-03-02T17:57:19;10.80;99.90
4820;DHT22;2424;49.696;6.630;2024-03-02T18:02:42;10.80;99.90
4820;DHT22;2424;49.696;6.630;2024-03-02T18:08:06;10.70;99.90
4820;DHT22;2424;49.696;6.630;2024-03-02T18:13:28;10.70;99.90
4820;DHT22;2424;49.696;6.630;2024-03-02T18:18:52;10.70;99.90
4820;DHT22;2424;49.696;6.630;2024-03-02T18:24:14;10.70;99.90
4820;DHT22;2424;49.696;6.630;2024-03-02T18:29:38;10.60;99.90
4820;DHT22;2424;49.696;6.630;2024-03-02T18:35:01;10.60;99.90
4820;DHT22;2424;49.696;6.630;2024-03-02T18:40:23;10.60;99.90
4820;DHT22;2424;49.696;6.630;2024-03-02T18:45:45;10.60;99.90
4820;DHT22;2424;49.696;6.630;2024-03-02T18:51:09;10.60;99.90
4820;DHT22;2424;49.696;6.630;2024-03-02T18:56:30;10.60;99.90
4820;DHT22;2424;49.696;6.630;2024-03-02T19:01:52;10.60;99.90
4820;DHT22;2424;49.696;6.630;2024-03-02T19:07:16;10.60;99.90
4820;DHT22;2424;49.696;6.630;2024-03-02T19:12:38;10.50;99.90
4820;DHT22;2424;49.696;6.630;2024-03-02T19:18:00;10.50;99.90
4820;DHT22;2424;49.696;6.630;2024-03-02T19:23:23;10.50;99.90
4820;DHT22;2424;49.696;6.630;2024-03-02T19:28:45;10.50;99.90
4820;DHT22;2424;49.696;6.630;2024-03-02T19:34:07;10.50;99.90
4820;DHT22;2424;49.696;6.630;2024-03-02T19:39:31;10.50;99.90
4820;DHT22;2424;49.696;6.630;2024-03-02T19:44:56;10.50;99.90
4820;DHT22;2424;49.696;6.630;2024-03-02T19:50:18;10.60;99.90
4820;DHT22;2424;49.696;6.630;2024-03-02T19:55:42;10.50;99.90
4820;DHT22;2424;49.696;6.630;2024-03-02T20:01:04;10.50;99.90
4820;DHT22;2424;49.696;6.630;2024-03-02T20:06:27;10.50;99.90
4820;DHT22;2424;49.696;6.630;2024-03-02T20:11:51;10.40;99.90
4820;DHT22;2424;49.696;6.630;2024-03-02T20:17:13;10.40;99.90
4820;DHT22;2424;49.696;6.630;2024-03-02T20:22:36;10.30;99.90
4820;DHT22;2424;49.696;6.630;2024-03-02T20:27:59;10.30;99.90
4820;DHT22;2424;49.696;6.630;2024-03-02T20:33:21;10.30;99.90
4820;DHT22;2424;49.696;6.630;2024-03-02T20:38:43;10.20;99.90
4820;DHT22;2424;49.696;6.630;2024-03-02T20:44:06;10.00;99.90
4820;DHT22;2424;49.696;6.630;2024-03-02T20:49:28;10.10;99.90
4820;DHT22;2424;49.696;6.630;2024-03-02T20:54:51;10.10;99.90
4820;DHT22;2424;49.696;6.630;2024-03-02T21:00:15;10.10;99.90
4820;DHT22;2424;49.696;6.630;2024-03-02T21:05:37;10.00;99.90
4820;DHT22;2424;49.696;6.630;2024-03-02T21:10:59;10.00;99.90
4820;DHT22;2424;49.696;6.630;2024-03-02T21:16:24;9.90;99.90
4820;DHT22;2424;49.696;6.630;2024-03-02T21:21:46;9.80;99.90
4820;DHT22;2424;49.696;6.630;2024-03-02T21:27:09;9.90;99.90
4820;DHT22;2424;49.696;6.630;2024-03-02T21:32:34;9.90;99.90
4820;DHT22;2424;49.696;6.630;2024-03-02T21:37:56;9.90;99.90
4820;DHT22;2424;49.696;6.630;2024-03-02T21:43:17;9.80;99.90
4820;DHT22;2424;49.696;6.630;2024-03-02T21:48:41;9.70;99.90
4820;DHT22;2424;49.696;6.630;2024-03-02T21:54:03;9.60;99.90
4820;DHT22;2424;49.696;6.630;2024-03-02T21:59:25;9.60;99.90
4820;DHT22;2424;49.696;6.630;2024-03-02T22:04:48;9.50;99.90
4820;DHT22;2424;49.696;6.630;2024-03-02T22:10:10;9.50;99.90
4820;DHT22;2424;49.696;6.630;2024-03-02T22:15:32;9.50;99.90
4820;DHT22;2424;49.696;6.630;2024-03-02T22:20:55;9.40;99.90
4820;DHT22;2424;49.696;6.630;2024-03-02T22:26:17;9.30;99.90
4820;DHT22;2424;49.696;6.630;2024-03-02T22:31:39;9.30;99.90
4820;DHT22;2424;49.696;6.630;2024-03-02T22:37:03;9.30;99.90
4820;DHT22;2424;49.696;6.630;2024-03-02T22:42:25;9.30;99.90
4820;DHT22;2424;49.696;6.630;2024-03-02T22:47:47;9.30;99.90
4820;DHT22;2424;49.696;6.630;2024-03-02T22:53:10;9.50;99.90
4820;DHT22;2424;49.696;6.630;2024-03-02T22:58:32;9.40;99.90
4820;DHT22;2424;49.696;6.630;2024-03-02T23:03:54;9.20;99.90
4820;DHT22;2424;49.696;6.630;2024-03-02T23:09:17;9.30;99.90
4820;DHT22;2424;49.696;6.630;2024-03-02T23:14:39;9.70;99.90
4820;DHT22;2424;49.696;6.630;2024-03-02T23:20:01;9.70;99.90
4820;DHT22;2424;49.696;6.630;2024-03-02T23:25:24;9.80;99.90
4820;DHT22;2424;49.696;6.630;2024-03-02T23:30:46;9.80;99.90
4820;DHT22;2424;49.696;6.630;2024-03-02T23:36:08;9.90;99.90
4820;DHT22;2424;49.696;6.630;2024-03-02T23:41:33;10.00;99.90
4820;DHT22;2424;49.696;6.630;2024-03-02T23:46:55;10.00;99.90
4820;DHT22;2424;49.696;6.630;2024-03-02T23:52:17;10.10;99.90
4820;DHT22;2424;49.696;6.630;2024-03-02T23:57:40;10.00;99.90
